sensor_id;sensor_type;location;lat;lon;timestamp;P1;durP1;ratioP1;P2;durP2;ratioP2
25962;SDS011;13760;52.588;13.406;2022-12-18T00:00:04;60.75;;;23.08;;
25962;SDS011;13760;52.588;13.406;2022-12-18T00:02:30;63.38;;;23.88;;
25962;SDS011;13760;52.588;13.406;2022-12-18T00:04:59;64.47;;;23.02;;
25962;SDS011;13760;52.588;13.406;2022-12-18T00:07:25;69.95;;;24.60;;
25962;SDS011;13760;52.588;13.406;2022-12-18T00:09:50;64.43;;;23.10;;
25962;SDS011;13760;52.588;13.406;2022-12-18T00:12:16;69.72;;;24.02;;
25962;SDS011;13760;52.588;13.406;2022-12-18T00:14:44;57.75;;;21.77;;
25962;SDS011;13760;52.588;13.406;2022-12-18T00:17:10;69.15;;;23.40;;
25962;SDS011;13760;52.588;13.406;2022-12-18T00:19:36;75.15;;;25.70;;
25962;SDS011;13760;52.588;13.406;2022-12-18T00:22:01;71.10;;;24.52;;
25962;SDS011;13760;52.588;13.406;2022-12-18T00:24:27;75.53;;;26.92;;
25962;SDS011;13760;52.588;13.406;2022-12-18T00:26:52;74.88;;;25.50;;
25962;SDS011;13760;52.588;13.406;2022-12-18T00:29:18;75.63;;;25.95;;
25962;SDS011;13760;52.588;13.406;2022-12-18T00:31:43;80.35;;;25.67;;
25962;SDS011;13760;52.588;13.406;2022-12-18T00:34:12;76.70;;;26.58;;
25962;SDS011;13760;52.588;13.406;2022-12-18T00:36:38;82.45;;;27.02;;
25962;SDS011;13760;52.588;13.406;2022-12-18T00:39:05;72.05;;;24.80;;
25962;SDS011;13760;52.588;13.406;2022-12-18T00:41:30;80.40;;;26.88;;
25962;SDS011;13760;52.588;13.406;2022-12-18T00:44:15;74.65;;;25.67;;
25962;SDS011;13760;52.588;13.406;2022-12-18T00:46:42;78.80;;;27.55;;
25962;SDS011;13760;52.588;13.406;2022-12-18T00:49:08;81.30;;;27.35;;
25962;SDS011;13760;52.588;13.406;2022-12-18T00:51:37;85.75;;;28.50;;
25962;SDS011;13760;52.588;13.406;2022-12-18T00:54:03;78.88;;;27.50;;
25962;SDS011;13760;52.588;13.406;2022-12-18T00:56:28;82.75;;;27.98;;
25962;SDS011;13760;52.588;13.406;2022-12-18T00:58:54;89.57;;;27.88;;
25962;SDS011;13760;52.588;13.406;2022-12-18T01:01:20;82.30;;;27.90;;
25962;SDS011;13760;52.588;13.406;2022-12-18T01:03:45;78.95;;;26.60;;
25962;SDS011;13760;52.588;13.406;2022-12-18T01:06:12;86.30;;;27.55;;
25962;SDS011;13760;52.588;13.406;2022-12-18T01:08:39;84.72;;;27.83;;
25962;SDS011;13760;52.588;13.406;2022-12-18T01:11:11;82.60;;;27.80;;
25962;SDS011;13760;52.588;13.406;2022-12-18T01:13:39;82.88;;;28.08;;
25962;SDS011;13760;52.588;13.406;2022-12-18T01:16:05;72.55;;;26.10;;
25962;SDS011;13760;52.588;13.406;2022-12-18T01:18:31;80.30;;;26.05;;
25962;SDS011;13760;52.588;13.406;2022-12-18T01:20:57;78.82;;;25.92;;
25962;SDS011;13760;52.588;13.406;2022-12-18T01:23:22;74.43;;;25.27;;
25962;SDS011;13760;52.588;13.406;2022-12-18T01:25:51;74.30;;;25.45;;
25962;SDS011;13760;52.588;13.406;2022-12-18T01:28:17;72.55;;;23.90;;
25962;SDS011;13760;52.588;13.406;2022-12-18T01:30:42;70.88;;;24.58;;
25962;SDS011;13760;52.588;13.406;2022-12-18T01:33:07;73.10;;;24.90;;
25962;SDS011;13760;52.588;13.406;2022-12-18T01:35:40;68.55;;;24.63;;
25962;SDS011;13760;52.588;13.406;2022-12-18T01:38:06;67.60;;;24.08;;
25962;SDS011;13760;52.588;13.406;2022-12-18T01:40:32;70.70;;;24.50;;
25962;SDS011;13760;52.588;13.406;2022-12-18T01:42:57;73.53;;;24.08;;
25962;SDS011;13760;52.588;13.406;2022-12-18T01:47:51;75.25;;;25.92;;
25962;SDS011;13760;52.588;13.406;2022-12-18T01:50:20;69.38;;;24.67;;
25962;SDS011;13760;52.588;13.406;2022-12-18T01:52:47;76.70;;;25.40;;
25962;SDS011;13760;52.588;13.406;2022-12-18T01:55:17;75.82;;;24.20;;
25962;SDS011;13760;52.588;13.406;2022-12-18T01:57:45;69.75;;;24.98;;
25962;SDS011;13760;52.588;13.406;2022-12-18T02:00:16;64.65;;;23.98;;
25962;SDS011;13760;52.588;13.406;2022-12-18T02:02:44;73.55;;;25.67;;
25962;SDS011;13760;52.588;13.406;2022-12-18T02:05:11;73.72;;;25.20;;
25962;SDS011;13760;52.588;13.406;2022-12-18T02:07:46;74.35;;;24.85;;
25962;SDS011;13760;52.588;13.406;2022-12-18T02:10:29;68.05;;;24.70;;
25962;SDS011;13760;52.588;13.406;2022-12-18T02:13:09;77.78;;;26.73;;
25962;SDS011;13760;52.588;13.406;2022-12-18T02:16:23;72.75;;;24.45;;
25962;SDS011;13760;52.588;13.406;2022-12-18T02:18:30;67.43;;;24.23;;
25962;SDS011;13760;52.588;13.406;2022-12-18T02:21:12;68.30;;;23.98;;
25962;SDS011;13760;52.588;13.406;2022-12-18T02:26:50;66.78;;;23.33;;
25962;SDS011;13760;52.588;13.406;2022-12-18T02:29:20;73.20;;;24.00;;
25962;SDS011;13760;52.588;13.406;2022-12-18T02:31:52;65.88;;;24.45;;
25962;SDS011;13760;52.588;13.406;2022-12-18T02:34:21;71.00;;;23.42;;
25962;SDS011;13760;52.588;13.406;2022-12-18T02:36:49;75.47;;;25.70;;
25962;SDS011;13760;52.588;13.406;2022-12-18T02:39:17;71.90;;;26.27;;
25962;SDS011;13760;52.588;13.406;2022-12-18T02:41:45;72.03;;;25.27;;
25962;SDS011;13760;52.588;13.406;2022-12-18T02:44:12;75.47;;;24.85;;
25962;SDS011;13760;52.588;13.406;2022-12-18T02:46:45;70.30;;;26.08;;
25962;SDS011;13760;52.588;13.406;2022-12-18T02:49:31;73.63;;;24.98;;
25962;SDS011;13760;52.588;13.406;2022-12-18T02:52:08;72.50;;;26.13;;
25962;SDS011;13760;52.588;13.406;2022-12-18T02:57:58;78.22;;;25.85;;
25962;SDS011;13760;52.588;13.406;2022-12-18T03:03:10;87.68;;;28.20;;
25962;SDS011;13760;52.588;13.406;2022-12-18T03:05:43;86.07;;;26.70;;
25962;SDS011;13760;52.588;13.406;2022-12-18T03:08:22;76.10;;;27.33;;
25962;SDS011;13760;52.588;13.406;2022-12-18T03:11:02;86.53;;;27.60;;
25962;SDS011;13760;52.588;13.406;2022-12-18T03:13:46;88.17;;;28.63;;
25962;SDS011;13760;52.588;13.406;2022-12-18T03:16:18;85.78;;;28.20;;
25962;SDS011;13760;52.588;13.406;2022-12-18T03:18:58;89.25;;;29.83;;
25962;SDS011;13760;52.588;13.406;2022-12-18T03:21:38;97.45;;;31.48;;
25962;SDS011;13760;52.588;13.406;2022-12-18T03:24:08;88.60;;;29.23;;
25962;SDS011;13760;52.588;13.406;2022-12-18T03:26:36;91.55;;;31.45;;
25962;SDS011;13760;52.588;13.406;2022-12-18T03:29:06;96.63;;;30.10;;
25962;SDS011;13760;52.588;13.406;2022-12-18T03:31:39;97.32;;;30.15;;
25962;SDS011;13760;52.588;13.406;2022-12-18T03:34:12;98.90;;;30.73;;
25962;SDS011;13760;52.588;13.406;2022-12-18T03:36:47;113.03;;;34.58;;
25962;SDS011;13760;52.588;13.406;2022-12-18T03:39:13;116.78;;;35.63;;
25962;SDS011;13760;52.588;13.406;2022-12-18T03:41:53;113.47;;;34.30;;
25962;SDS011;13760;52.588;13.406;2022-12-18T03:44:33;104.32;;;31.45;;
25962;SDS011;13760;52.588;13.406;2022-12-18T03:47:05;115.78;;;34.15;;
25962;SDS011;13760;52.588;13.406;2022-12-18T03:52:33;124.07;;;35.30;;
25962;SDS011;13760;52.588;13.406;2022-12-18T03:55:03;113.22;;;34.47;;
25962;SDS011;13760;52.588;13.406;2022-12-18T03:57:31;116.18;;;35.33;;
25962;SDS011;13760;52.588;13.406;2022-12-18T04:00:03;119.90;;;34.20;;
25962;SDS011;13760;52.588;13.406;2022-12-18T04:02:31;114.80;;;36.45;;
25962;SDS011;13760;52.588;13.406;2022-12-18T04:04:59;104.28;;;33.88;;
25962;SDS011;13760;52.588;13.406;2022-12-18T04:07:27;110.43;;;35.05;;
25962;SDS011;13760;52.588;13.406;2022-12-18T04:09:54;103.78;;;32.20;;
25962;SDS011;13760;52.588;13.406;2022-12-18T04:12:25;103.78;;;31.58;;
25962;SDS011;13760;52.588;13.406;2022-12-18T04:14:51;98.75;;;31.83;;
25962;SDS011;13760;52.588;13.406;2022-12-18T04:17:17;93.45;;;30.90;;
25962;SDS011;13760;52.588;13.406;2022-12-18T04:19:42;99.38;;;31.08;;
25962;SDS011;13760;52.588;13.406;2022-12-18T04:22:09;103.38;;;32.10;;
25962;SDS011;13760;52.588;13.406;2022-12-18T04:24:35;94.07;;;30.58;;
25962;SDS011;13760;52.588;13.406;2022-12-18T04:27:01;82.45;;;27.38;;
25962;SDS011;13760;52.588;13.406;2022-12-18T04:29:26;88.38;;;30.05;;
25962;SDS011;13760;52.588;13.406;2022-12-18T04:31:53;79.65;;;26.85;;
25962;SDS011;13760;52.588;13.406;2022-12-18T04:34:19;87.78;;;27.60;;
25962;SDS011;13760;52.588;13.406;2022-12-18T04:36:44;79.55;;;27.35;;
25962;SDS011;13760;52.588;13.406;2022-12-18T04:39:10;82.18;;;27.52;;
25962;SDS011;13760;52.588;13.406;2022-12-18T04:41:36;79.45;;;25.70;;
25962;SDS011;13760;52.588;13.406;2022-12-18T04:44:01;83.65;;;27.35;;
25962;SDS011;13760;52.588;13.406;2022-12-18T04:46:27;82.07;;;27.55;;
25962;SDS011;13760;52.588;13.406;2022-12-18T04:48:52;89.30;;;27.30;;
25962;SDS011;13760;52.588;13.406;2022-12-18T04:51:17;76.25;;;27.10;;
25962;SDS011;13760;52.588;13.406;2022-12-18T04:53:43;84.88;;;27.20;;
25962;SDS011;13760;52.588;13.406;2022-12-18T04:56:10;84.90;;;28.45;;
25962;SDS011;13760;52.588;13.406;2022-12-18T04:58:37;86.82;;;27.80;;
25962;SDS011;13760;52.588;13.406;2022-12-18T05:01:04;85.90;;;27.15;;
25962;SDS011;13760;52.588;13.406;2022-12-18T05:03:30;77.60;;;26.42;;
25962;SDS011;13760;52.588;13.406;2022-12-18T05:05:55;85.32;;;27.02;;
25962;SDS011;13760;52.588;13.406;2022-12-18T05:08:21;85.07;;;27.50;;
25962;SDS011;13760;52.588;13.406;2022-12-18T05:10:47;81.20;;;26.38;;
25962;SDS011;13760;52.588;13.406;2022-12-18T05:13:12;80.85;;;27.17;;
25962;SDS011;13760;52.588;13.406;2022-12-18T05:15:38;83.05;;;26.80;;
25962;SDS011;13760;52.588;13.406;2022-12-18T05:18:04;83.30;;;24.80;;
25962;SDS011;13760;52.588;13.406;2022-12-18T05:20:29;80.95;;;26.83;;
25962;SDS011;13760;52.588;13.406;2022-12-18T05:22:55;86.55;;;27.02;;
25962;SDS011;13760;52.588;13.406;2022-12-18T05:25:21;78.50;;;26.25;;
25962;SDS011;13760;52.588;13.406;2022-12-18T05:27:47;87.03;;;24.85;;
25962;SDS011;13760;52.588;13.406;2022-12-18T05:30:13;83.97;;;26.45;;
25962;SDS011;13760;52.588;13.406;2022-12-18T05:32:40;85.05;;;26.08;;
25962;SDS011;13760;52.588;13.406;2022-12-18T05:35:06;77.13;;;26.25;;
25962;SDS011;13760;52.588;13.406;2022-12-18T05:37:33;78.78;;;24.73;;
25962;SDS011;13760;52.588;13.406;2022-12-18T05:39:59;76.32;;;25.23;;
25962;SDS011;13760;52.588;13.406;2022-12-18T05:42:24;79.25;;;24.98;;
25962;SDS011;13760;52.588;13.406;2022-12-18T05:44:50;75.75;;;25.45;;
25962;SDS011;13760;52.588;13.406;2022-12-18T05:47:15;76.85;;;24.63;;
25962;SDS011;13760;52.588;13.406;2022-12-18T05:49:41;79.55;;;25.42;;
25962;SDS011;13760;52.588;13.406;2022-12-18T05:52:07;79.00;;;25.83;;
25962;SDS011;13760;52.588;13.406;2022-12-18T05:54:32;74.22;;;25.55;;
25962;SDS011;13760;52.588;13.406;2022-12-18T05:56:58;83.18;;;25.95;;
25962;SDS011;13760;52.588;13.406;2022-12-18T05:59:23;81.18;;;25.30;;
25962;SDS011;13760;52.588;13.406;2022-12-18T06:01:49;69.05;;;23.33;;
25962;SDS011;13760;52.588;13.406;2022-12-18T06:04:14;73.60;;;24.20;;
25962;SDS011;13760;52.588;13.406;2022-12-18T06:06:40;78.40;;;24.17;;
25962;SDS011;13760;52.588;13.406;2022-12-18T06:09:06;74.30;;;24.15;;
25962;SDS011;13760;52.588;13.406;2022-12-18T06:11:33;82.25;;;24.35;;
25962;SDS011;13760;52.588;13.406;2022-12-18T06:13:59;74.78;;;24.33;;
25962;SDS011;13760;52.588;13.406;2022-12-18T06:16:26;75.63;;;24.33;;
25962;SDS011;13760;52.588;13.406;2022-12-18T06:18:53;73.75;;;23.70;;
25962;SDS011;13760;52.588;13.406;2022-12-18T06:21:20;87.38;;;25.25;;
25962;SDS011;13760;52.588;13.406;2022-12-18T06:23:46;85.80;;;26.02;;
25962;SDS011;13760;52.588;13.406;2022-12-18T06:26:12;83.93;;;26.30;;
25962;SDS011;13760;52.588;13.406;2022-12-18T06:28:38;91.90;;;27.17;;
25962;SDS011;13760;52.588;13.406;2022-12-18T06:31:04;93.28;;;26.83;;
25962;SDS011;13760;52.588;13.406;2022-12-18T06:33:30;84.70;;;26.17;;
25962;SDS011;13760;52.588;13.406;2022-12-18T06:36:00;86.90;;;26.48;;
25962;SDS011;13760;52.588;13.406;2022-12-18T06:38:28;95.25;;;28.80;;
25962;SDS011;13760;52.588;13.406;2022-12-18T06:40:53;104.72;;;29.45;;
25962;SDS011;13760;52.588;13.406;2022-12-18T06:43:23;97.63;;;28.45;;
25962;SDS011;13760;52.588;13.406;2022-12-18T06:45:57;107.15;;;29.20;;
25962;SDS011;13760;52.588;13.406;2022-12-18T06:48:24;111.60;;;29.92;;
25962;SDS011;13760;52.588;13.406;2022-12-18T06:50:50;102.18;;;29.95;;
25962;SDS011;13760;52.588;13.406;2022-12-18T06:53:16;107.38;;;30.92;;
25962;SDS011;13760;52.588;13.406;2022-12-18T06:55:42;107.35;;;30.63;;
25962;SDS011;13760;52.588;13.406;2022-12-18T06:58:08;107.20;;;29.90;;
25962;SDS011;13760;52.588;13.406;2022-12-18T07:00:33;102.55;;;30.02;;
25962;SDS011;13760;52.588;13.406;2022-12-18T07:02:59;100.45;;;30.60;;
25962;SDS011;13760;52.588;13.406;2022-12-18T07:05:24;102.22;;;29.70;;
25962;SDS011;13760;52.588;13.406;2022-12-18T07:07:50;103.35;;;30.67;;
25962;SDS011;13760;52.588;13.406;2022-12-18T07:10:15;101.38;;;30.13;;
25962;SDS011;13760;52.588;13.406;2022-12-18T07:12:41;101.95;;;29.90;;
25962;SDS011;13760;52.588;13.406;2022-12-18T07:15:07;104.97;;;31.15;;
25962;SDS011;13760;52.588;13.406;2022-12-18T07:17:32;107.10;;;31.30;;
25962;SDS011;13760;52.588;13.406;2022-12-18T07:19:58;100.00;;;30.35;;
25962;SDS011;13760;52.588;13.406;2022-12-18T07:22:24;92.05;;;29.23;;
25962;SDS011;13760;52.588;13.406;2022-12-18T07:24:50;94.90;;;30.17;;
25962;SDS011;13760;52.588;13.406;2022-12-18T07:27:16;93.50;;;30.02;;
25962;SDS011;13760;52.588;13.406;2022-12-18T07:29:42;94.72;;;29.38;;
25962;SDS011;13760;52.588;13.406;2022-12-18T07:32:07;91.13;;;28.05;;
25962;SDS011;13760;52.588;13.406;2022-12-18T07:34:33;92.07;;;29.15;;
25962;SDS011;13760;52.588;13.406;2022-12-18T07:36:59;89.00;;;28.92;;
25962;SDS011;13760;52.588;13.406;2022-12-18T07:39:24;89.78;;;27.65;;
25962;SDS011;13760;52.588;13.406;2022-12-18T07:41:50;86.35;;;26.92;;
25962;SDS011;13760;52.588;13.406;2022-12-18T07:44:34;92.60;;;27.77;;
25962;SDS011;13760;52.588;13.406;2022-12-18T07:47:00;91.63;;;26.92;;
25962;SDS011;13760;52.588;13.406;2022-12-18T07:49:25;90.15;;;27.67;;
25962;SDS011;13760;52.588;13.406;2022-12-18T07:51:51;92.72;;;28.15;;
25962;SDS011;13760;52.588;13.406;2022-12-18T07:54:18;91.65;;;27.23;;
25962;SDS011;13760;52.588;13.406;2022-12-18T07:56:44;94.88;;;29.23;;
25962;SDS011;13760;52.588;13.406;2022-12-18T07:59:09;98.20;;;29.75;;
25962;SDS011;13760;52.588;13.406;2022-12-18T08:01:35;91.22;;;29.42;;
25962;SDS011;13760;52.588;13.406;2022-12-18T08:04:00;95.88;;;29.85;;
25962;SDS011;13760;52.588;13.406;2022-12-18T08:06:26;94.32;;;30.08;;
25962;SDS011;13760;52.588;13.406;2022-12-18T08:08:52;89.00;;;28.73;;
25962;SDS011;13760;52.588;13.406;2022-12-18T08:11:19;97.38;;;29.85;;
25962;SDS011;13760;52.588;13.406;2022-12-18T08:13:44;88.32;;;26.92;;
25962;SDS011;13760;52.588;13.406;2022-12-18T08:16:10;99.57;;;28.90;;
25962;SDS011;13760;52.588;13.406;2022-12-18T08:18:36;98.18;;;30.42;;
25962;SDS011;13760;52.588;13.406;2022-12-18T08:21:09;94.72;;;28.85;;
25962;SDS011;13760;52.588;13.406;2022-12-18T08:23:35;87.85;;;28.73;;
25962;SDS011;13760;52.588;13.406;2022-12-18T08:26:01;89.60;;;28.80;;
25962;SDS011;13760;52.588;13.406;2022-12-18T08:28:26;99.45;;;30.92;;
25962;SDS011;13760;52.588;13.406;2022-12-18T08:30:52;88.38;;;28.38;;
25962;SDS011;13760;52.588;13.406;2022-12-18T08:33:17;89.85;;;27.77;;
25962;SDS011;13760;52.588;13.406;2022-12-18T08:35:43;93.63;;;28.85;;
25962;SDS011;13760;52.588;13.406;2022-12-18T08:38:09;92.15;;;29.55;;
25962;SDS011;13760;52.588;13.406;2022-12-18T08:40:34;84.35;;;26.58;;
25962;SDS011;13760;52.588;13.406;2022-12-18T08:43:00;85.22;;;26.80;;
25962;SDS011;13760;52.588;13.406;2022-12-18T08:45:44;84.57;;;28.02;;
25962;SDS011;13760;52.588;13.406;2022-12-18T08:48:10;84.38;;;27.25;;
25962;SDS011;13760;52.588;13.406;2022-12-18T08:50:35;86.97;;;26.95;;
25962;SDS011;13760;52.588;13.406;2022-12-18T08:53:01;77.85;;;25.55;;
25962;SDS011;13760;52.588;13.406;2022-12-18T08:55:27;80.68;;;26.30;;
25962;SDS011;13760;52.588;13.406;2022-12-18T08:57:52;76.38;;;26.73;;
25962;SDS011;13760;52.588;13.406;2022-12-18T09:00:18;73.85;;;25.67;;
25962;SDS011;13760;52.588;13.406;2022-12-18T09:02:44;71.05;;;24.38;;
25962;SDS011;13760;52.588;13.406;2022-12-18T09:05:10;68.18;;;26.52;;
25962;SDS011;13760;52.588;13.406;2022-12-18T09:07:36;72.90;;;25.48;;
25962;SDS011;13760;52.588;13.406;2022-12-18T09:10:01;79.47;;;28.13;;
25962;SDS011;13760;52.588;13.406;2022-12-18T09:12:27;76.88;;;26.90;;
25962;SDS011;13760;52.588;13.406;2022-12-18T09:14:52;74.55;;;25.50;;
25962;SDS011;13760;52.588;13.406;2022-12-18T09:17:18;94.40;;;33.90;;
25962;SDS011;13760;52.588;13.406;2022-12-18T09:19:43;76.13;;;26.88;;
25962;SDS011;13760;52.588;13.406;2022-12-18T09:22:09;74.53;;;25.48;;
25962;SDS011;13760;52.588;13.406;2022-12-18T09:24:35;73.50;;;25.63;;
25962;SDS011;13760;52.588;13.406;2022-12-18T09:27:01;74.80;;;25.98;;
25962;SDS011;13760;52.588;13.406;2022-12-18T09:29:26;74.60;;;24.75;;
25962;SDS011;13760;52.588;13.406;2022-12-18T09:31:52;72.97;;;25.35;;
25962;SDS011;13760;52.588;13.406;2022-12-18T09:34:18;72.30;;;26.35;;
25962;SDS011;13760;52.588;13.406;2022-12-18T09:36:45;68.15;;;25.42;;
25962;SDS011;13760;52.588;13.406;2022-12-18T09:39:11;76.63;;;26.90;;
25962;SDS011;13760;52.588;13.406;2022-12-18T09:41:44;67.28;;;25.55;;
25962;SDS011;13760;52.588;13.406;2022-12-18T09:47:13;69.88;;;25.40;;
25962;SDS011;13760;52.588;13.406;2022-12-18T09:49:41;75.53;;;26.33;;
25962;SDS011;13760;52.588;13.406;2022-12-18T09:52:11;70.40;;;25.65;;
25962;SDS011;13760;52.588;13.406;2022-12-18T09:55:28;69.63;;;25.38;;
25962;SDS011;13760;52.588;13.406;2022-12-18T09:58:00;68.72;;;25.85;;
25962;SDS011;13760;52.588;13.406;2022-12-18T10:00:46;68.78;;;24.65;;
25962;SDS011;13760;52.588;13.406;2022-12-18T10:03:13;71.65;;;26.20;;
25962;SDS011;13760;52.588;13.406;2022-12-18T10:14:23;72.53;;;23.50;;
25962;SDS011;13760;52.588;13.406;2022-12-18T10:19:49;77.20;;;26.67;;
25962;SDS011;13760;52.588;13.406;2022-12-18T10:27:46;80.60;;;26.27;;
25962;SDS011;13760;52.588;13.406;2022-12-18T10:30:14;82.03;;;28.45;;
25962;SDS011;13760;52.588;13.406;2022-12-18T10:32:41;79.15;;;28.38;;
25962;SDS011;13760;52.588;13.406;2022-12-18T10:35:07;77.47;;;27.35;;
25962;SDS011;13760;52.588;13.406;2022-12-18T10:37:58;77.50;;;27.70;;
25962;SDS011;13760;52.588;13.406;2022-12-18T10:45:58;81.22;;;28.33;;
25962;SDS011;13760;52.588;13.406;2022-12-18T10:48:26;84.10;;;27.07;;
25962;SDS011;13760;52.588;13.406;2022-12-18T10:50:53;79.82;;;26.55;;
25962;SDS011;13760;52.588;13.406;2022-12-18T10:53:21;82.68;;;27.65;;
25962;SDS011;13760;52.588;13.406;2022-12-18T10:55:49;82.55;;;28.02;;
25962;SDS011;13760;52.588;13.406;2022-12-18T11:01:07;88.55;;;28.48;;
25962;SDS011;13760;52.588;13.406;2022-12-18T11:03:44;76.82;;;27.35;;
25962;SDS011;13760;52.588;13.406;2022-12-18T11:06:12;82.53;;;28.40;;
25962;SDS011;13760;52.588;13.406;2022-12-18T11:08:40;81.32;;;27.30;;
25962;SDS011;13760;52.588;13.406;2022-12-18T11:11:15;85.15;;;26.70;;
25962;SDS011;13760;52.588;13.406;2022-12-18T11:13:55;85.03;;;26.95;;
25962;SDS011;13760;52.588;13.406;2022-12-18T11:16:26;73.68;;;27.38;;
25962;SDS011;13760;52.588;13.406;2022-12-18T11:18:53;85.50;;;27.52;;
25962;SDS011;13760;52.588;13.406;2022-12-18T11:21:19;84.05;;;28.58;;
25962;SDS011;13760;52.588;13.406;2022-12-18T11:23:58;80.70;;;27.40;;
25962;SDS011;13760;52.588;13.406;2022-12-18T11:26:33;81.07;;;26.70;;
25962;SDS011;13760;52.588;13.406;2022-12-18T11:29:10;73.15;;;26.05;;
25962;SDS011;13760;52.588;13.406;2022-12-18T11:31:41;78.82;;;27.33;;
25962;SDS011;13760;52.588;13.406;2022-12-18T11:34:49;75.15;;;28.08;;
25962;SDS011;13760;52.588;13.406;2022-12-18T11:36:57;79.32;;;27.02;;
25962;SDS011;13760;52.588;13.406;2022-12-18T11:42:17;76.97;;;28.42;;
25962;SDS011;13760;52.588;13.406;2022-12-18T11:44:53;76.82;;;26.23;;
25962;SDS011;13760;52.588;13.406;2022-12-18T11:50:49;78.35;;;27.55;;
25962;SDS011;13760;52.588;13.406;2022-12-18T11:53:16;86.18;;;29.33;;
25962;SDS011;13760;52.588;13.406;2022-12-18T11:56:02;74.18;;;27.25;;
25962;SDS011;13760;52.588;13.406;2022-12-18T12:01:32;80.55;;;28.92;;
25962;SDS011;13760;52.588;13.406;2022-12-18T12:06:50;74.25;;;26.05;;
25962;SDS011;13760;52.588;13.406;2022-12-18T12:09:48;70.50;;;26.80;;
25962;SDS011;13760;52.588;13.406;2022-12-18T12:12:50;74.90;;;27.10;;
25962;SDS011;13760;52.588;13.406;2022-12-18T12:15:32;71.15;;;26.00;;
25962;SDS011;13760;52.588;13.406;2022-12-18T12:18:21;66.80;;;26.23;;
25962;SDS011;13760;52.588;13.406;2022-12-18T12:24:04;68.35;;;27.38;;
25962;SDS011;13760;52.588;13.406;2022-12-18T12:26:49;67.90;;;24.88;;
25962;SDS011;13760;52.588;13.406;2022-12-18T12:32:22;71.00;;;26.85;;
25962;SDS011;13760;52.588;13.406;2022-12-18T12:40:17;71.95;;;25.98;;
25962;SDS011;13760;52.588;13.406;2022-12-18T12:42:51;63.20;;;25.02;;
25962;SDS011;13760;52.588;13.406;2022-12-18T12:53:26;70.22;;;26.40;;
25962;SDS011;13760;52.588;13.406;2022-12-18T12:55:58;73.55;;;27.70;;
25962;SDS011;13760;52.588;13.406;2022-12-18T12:58:38;67.63;;;26.60;;
25962;SDS011;13760;52.588;13.406;2022-12-18T13:01:16;61.97;;;23.88;;
25962;SDS011;13760;52.588;13.406;2022-12-18T13:03:55;69.63;;;26.63;;
25962;SDS011;13760;52.588;13.406;2022-12-18T13:09:36;65.47;;;26.10;;
25962;SDS011;13760;52.588;13.406;2022-12-18T13:15:41;59.95;;;24.58;;
25962;SDS011;13760;52.588;13.406;2022-12-18T13:18:13;65.07;;;24.58;;
25962;SDS011;13760;52.588;13.406;2022-12-18T13:20:51;64.47;;;24.42;;
25962;SDS011;13760;52.588;13.406;2022-12-18T13:31:11;57.05;;;23.02;;
25962;SDS011;13760;52.588;13.406;2022-12-18T13:33:38;58.92;;;23.35;;
25962;SDS011;13760;52.588;13.406;2022-12-18T13:36:12;58.17;;;23.25;;
25962;SDS011;13760;52.588;13.406;2022-12-18T13:38:42;62.70;;;24.55;;
25962;SDS011;13760;52.588;13.406;2022-12-18T13:43:55;60.33;;;24.73;;
25962;SDS011;13760;52.588;13.406;2022-12-18T13:46:44;58.05;;;24.33;;
25962;SDS011;13760;52.588;13.406;2022-12-18T13:51:57;56.05;;;22.40;;
25962;SDS011;13760;52.588;13.406;2022-12-18T13:56:53;56.28;;;23.63;;
25962;SDS011;13760;52.588;13.406;2022-12-18T13:59:21;59.17;;;25.60;;
25962;SDS011;13760;52.588;13.406;2022-12-18T14:01:55;65.32;;;25.35;;
25962;SDS011;13760;52.588;13.406;2022-12-18T14:04:40;61.30;;;25.07;;
25962;SDS011;13760;52.588;13.406;2022-12-18T14:09:46;65.78;;;26.48;;
25962;SDS011;13760;52.588;13.406;2022-12-18T14:15:01;52.03;;;22.17;;
25962;SDS011;13760;52.588;13.406;2022-12-18T14:17:27;51.25;;;22.45;;
25962;SDS011;13760;52.588;13.406;2022-12-18T14:19:52;52.55;;;23.10;;
25962;SDS011;13760;52.588;13.406;2022-12-18T14:22:19;54.63;;;23.50;;
25962;SDS011;13760;52.588;13.406;2022-12-18T14:24:46;58.67;;;24.90;;
25962;SDS011;13760;52.588;13.406;2022-12-18T14:27:29;54.15;;;23.70;;
25962;SDS011;13760;52.588;13.406;2022-12-18T14:29:55;60.08;;;25.02;;
25962;SDS011;13760;52.588;13.406;2022-12-18T14:32:20;55.03;;;24.55;;
25962;SDS011;13760;52.588;13.406;2022-12-18T14:34:53;61.55;;;25.63;;
25962;SDS011;13760;52.588;13.406;2022-12-18T14:37:25;56.90;;;24.17;;
25962;SDS011;13760;52.588;13.406;2022-12-18T14:39:53;55.17;;;25.83;;
25962;SDS011;13760;52.588;13.406;2022-12-18T14:42:22;56.75;;;26.58;;
25962;SDS011;13760;52.588;13.406;2022-12-18T14:47:58;59.45;;;26.45;;
25962;SDS011;13760;52.588;13.406;2022-12-18T14:50:24;57.85;;;25.60;;
25962;SDS011;13760;52.588;13.406;2022-12-18T14:52:51;55.85;;;24.38;;
25962;SDS011;13760;52.588;13.406;2022-12-18T14:55:17;58.85;;;24.55;;
25962;SDS011;13760;52.588;13.406;2022-12-18T14:57:44;62.50;;;26.15;;
25962;SDS011;13760;52.588;13.406;2022-12-18T15:00:17;57.85;;;24.52;;
25962;SDS011;13760;52.588;13.406;2022-12-18T15:02:54;56.72;;;25.13;;
25962;SDS011;13760;52.588;13.406;2022-12-18T15:05:25;62.20;;;26.25;;
25962;SDS011;13760;52.588;13.406;2022-12-18T15:07:56;63.45;;;26.40;;
25962;SDS011;13760;52.588;13.406;2022-12-18T15:10:27;64.13;;;27.77;;
25962;SDS011;13760;52.588;13.406;2022-12-18T15:20:52;56.90;;;24.23;;
25962;SDS011;13760;52.588;13.406;2022-12-18T15:23:27;53.83;;;24.25;;
25962;SDS011;13760;52.588;13.406;2022-12-18T15:26:02;55.80;;;25.90;;
25962;SDS011;13760;52.588;13.406;2022-12-18T15:33:41;53.25;;;24.65;;
25962;SDS011;13760;52.588;13.406;2022-12-18T15:36:30;57.90;;;23.92;;
25962;SDS011;13760;52.588;13.406;2022-12-18T15:38:56;54.20;;;25.27;;
25962;SDS011;13760;52.588;13.406;2022-12-18T15:41:23;60.75;;;25.77;;
25962;SDS011;13760;52.588;13.406;2022-12-18T15:43:49;63.05;;;27.15;;
25962;SDS011;13760;52.588;13.406;2022-12-18T15:46:17;62.50;;;26.15;;
25962;SDS011;13760;52.588;13.406;2022-12-18T15:48:45;62.83;;;27.25;;
25962;SDS011;13760;52.588;13.406;2022-12-18T15:51:17;62.78;;;26.50;;
25962;SDS011;13760;52.588;13.406;2022-12-18T15:53:45;43.70;;;20.92;;
25962;SDS011;13760;52.588;13.406;2022-12-18T15:56:12;50.45;;;22.00;;
25962;SDS011;13760;52.588;13.406;2022-12-18T15:58:57;48.28;;;22.13;;
25962;SDS011;13760;52.588;13.406;2022-12-18T16:01:24;47.65;;;21.50;;
25962;SDS011;13760;52.588;13.406;2022-12-18T16:03:58;52.40;;;25.10;;
25962;SDS011;13760;52.588;13.406;2022-12-18T16:06:23;58.28;;;23.42;;
25962;SDS011;13760;52.588;13.406;2022-12-18T16:08:50;48.08;;;21.70;;
25962;SDS011;13760;52.588;13.406;2022-12-18T16:11:22;47.53;;;21.70;;
25962;SDS011;13760;52.588;13.406;2022-12-18T16:14:18;45.28;;;20.05;;
25962;SDS011;13760;52.588;13.406;2022-12-18T16:16:45;45.78;;;21.80;;
25962;SDS011;13760;52.588;13.406;2022-12-18T16:19:11;47.80;;;22.05;;